createdAt,value
2022-12-09T00:01:03.654Z,15.93
2022-12-09T00:05:09.512Z,17.02
2022-12-09T00:10:10.036Z,17.15
2022-12-09T00:15:08.978Z,18.30
2022-12-09T00:20:09.076Z,17.15
2022-12-09T00:25:09.337Z,18.52
2022-12-09T00:30:09.452Z,14.85
2022-12-09T00:35:09.693Z,17.08
2022-12-09T00:40:09.703Z,19.30
2022-12-09T00:45:09.869Z,19.80
2022-12-09T00:50:10.005Z,15.95
2022-12-09T00:55:09.600Z,16.67
2022-12-09T01:00:09.926Z,15.57
2022-12-09T01:05:09.411Z,17.17
2022-12-09T01:10:09.899Z,18.63
2022-12-09T01:15:09.009Z,17.50
2022-12-09T01:20:09.483Z,18.50
2022-12-09T01:25:10.535Z,15.93
2022-12-09T01:30:10.680Z,15.77
2022-12-09T01:35:09.836Z,15.40
2022-12-09T01:40:10.154Z,14.25
2022-12-09T01:45:09.413Z,15.30
2022-12-09T01:50:09.401Z,15.00
2022-12-09T01:55:09.651Z,16.15
2022-12-09T02:00:09.731Z,16.13
2022-12-09T02:05:08.791Z,16.27
2022-12-09T02:10:09.759Z,17.35
2022-12-09T02:15:10.087Z,16.45
2022-12-09T02:20:09.465Z,15.50
2022-12-09T02:25:17.462Z,14.93
2022-12-09T02:30:09.813Z,13.70
2022-12-09T02:35:08.980Z,14.00
2022-12-09T02:40:09.149Z,15.50
2022-12-09T02:45:09.466Z,14.88
2022-12-09T02:50:09.752Z,13.55
2022-12-09T02:55:09.628Z,12.43
2022-12-09T03:00:09.674Z,15.07
2022-12-09T03:05:08.971Z,12.55
2022-12-09T03:10:08.998Z,12.45
2022-12-09T03:15:09.159Z,11.90
2022-12-09T03:20:09.251Z,12.30
2022-12-09T03:25:09.658Z,14.30
2022-12-09T03:30:09.991Z,14.93
2022-12-09T03:35:09.434Z,15.10
2022-12-09T03:40:13.912Z,16.73
2022-12-09T03:45:09.371Z,15.65
2022-12-09T03:50:09.391Z,15.73
2022-12-09T03:55:09.445Z,15.07
2022-12-09T04:00:09.847Z,16.17
2022-12-09T04:05:09.506Z,17.15
2022-12-09T04:10:09.844Z,17.67
2022-12-09T04:15:09.492Z,17.95
2022-12-09T04:20:09.808Z,18.25
2022-12-09T04:25:08.924Z,21.70
2022-12-09T04:30:10.688Z,23.27
2022-12-09T04:35:10.021Z,23.52
2022-12-09T04:40:09.668Z,22.73
2022-12-09T04:45:08.987Z,22.58
2022-12-09T04:50:09.377Z,21.20
2022-12-09T04:55:09.385Z,21.38
2022-12-09T05:00:09.464Z,22.13
2022-12-09T05:05:03.260Z,22.48
2022-12-09T05:10:04.235Z,20.98
2022-12-09T05:15:02.847Z,23.23
2022-12-09T05:20:03.316Z,18.65
2022-12-09T05:25:02.904Z,19.52
2022-12-09T05:30:02.829Z,23.85
2022-12-09T05:35:03.300Z,21.20
2022-12-09T05:40:03.054Z,23.42
2022-12-09T05:45:02.475Z,25.15
2022-12-09T05:50:07.547Z,23.52
2022-12-09T05:55:02.557Z,23.88
2022-12-09T06:00:03.163Z,22.50
2022-12-09T06:05:03.242Z,22.65
2022-12-09T06:10:02.925Z,21.45
2022-12-09T06:15:02.137Z,21.25
2022-12-09T06:20:02.470Z,21.48
2022-12-09T06:25:02.572Z,20.25
2022-12-09T06:30:02.615Z,23.55
2022-12-09T06:35:03.030Z,20.13
2022-12-09T06:40:02.648Z,21.25
2022-12-09T06:45:03.143Z,24.08
2022-12-09T06:50:06.192Z,20.85
2022-12-09T06:55:02.359Z,23.65
2022-12-09T07:00:02.803Z,22.10
2022-12-09T07:05:03.341Z,22.83
2022-12-09T07:10:03.922Z,19.85
2022-12-09T07:15:02.121Z,17.67
2022-12-09T07:20:07.031Z,18.48
2022-12-09T07:25:02.986Z,15.95
2022-12-09T07:30:02.730Z,15.25
2022-12-09T07:35:02.987Z,18.10
2022-12-09T07:40:02.532Z,18.02
2022-12-09T07:45:02.986Z,18.60
2022-12-09T07:50:06.631Z,18.25
2022-12-09T07:55:02.469Z,15.68
2022-12-09T08:00:02.884Z,15.75
2022-12-09T08:05:02.387Z,14.52
2022-12-09T08:10:02.972Z,14.77
2022-12-09T08:15:02.386Z,15.93
2022-12-09T08:20:03.076Z,15.35
2022-12-09T08:25:02.183Z,15.68
2022-12-09T08:30:02.791Z,13.55
2022-12-09T08:35:02.854Z,14.98
2022-12-09T08:40:02.944Z,13.73
2022-12-09T08:45:03.072Z,14.88
2022-12-09T08:50:02.976Z,18.75
2022-12-09T08:55:02.215Z,17.13
2022-12-09T09:00:02.193Z,16.38
2022-12-09T09:05:02.934Z,19.05
2022-12-09T09:10:02.692Z,17.33
2022-12-09T09:15:02.797Z,15.95
2022-12-09T09:20:03.977Z,14.55
2022-12-09T09:25:02.403Z,14.68
2022-12-09T09:30:02.964Z,13.80
2022-12-09T09:35:02.502Z,13.13
2022-12-09T09:40:02.784Z,12.77
2022-12-09T09:45:03.061Z,12.73
2022-12-09T09:50:02.639Z,14.48
2022-12-09T09:55:02.898Z,13.25
2022-12-09T10:00:08.870Z,13.90
2022-12-09T10:05:13.287Z,0
2022-12-09T10:10:03.027Z,12.77
2022-12-09T10:15:02.590Z,12.13
2022-12-09T10:20:02.821Z,11.23
2022-12-09T10:25:03.554Z,12.40
2022-12-09T10:30:03.071Z,12.55
2022-12-09T10:35:03.414Z,12.85
2022-12-09T10:40:03.182Z,14.20
2022-12-09T10:45:02.494Z,13.95
2022-12-09T10:50:03.340Z,14.70
2022-12-09T10:55:03.105Z,14.50
2022-12-09T11:00:02.825Z,12.63
2022-12-09T11:05:02.630Z,12.27
2022-12-09T11:10:02.178Z,13.27
2022-12-09T11:15:11.613Z,12.60
2022-12-09T11:20:02.896Z,12.35
2022-12-09T11:25:02.727Z,12.07
2022-12-09T11:30:06.929Z,12.60
2022-12-09T11:35:03.350Z,12.88
2022-12-09T11:40:05.343Z,12.52
2022-12-09T11:45:02.655Z,12.30
2022-12-09T11:50:02.625Z,11.10
2022-12-09T11:55:02.698Z,11.35
2022-12-09T12:00:02.651Z,10.10
2022-12-09T12:05:02.659Z,11.35
2022-12-09T12:10:02.656Z,12.18
2022-12-09T12:15:02.461Z,12.85
2022-12-09T12:20:02.568Z,11.63
2022-12-09T12:25:17.505Z,0
2022-12-09T12:30:02.155Z,11.45
2022-12-09T12:35:02.257Z,13.15
2022-12-09T12:40:03.860Z,15.27
2022-12-09T12:45:02.031Z,14.00
2022-12-09T12:50:02.108Z,13.75
2022-12-09T12:55:04.443Z,13.73
2022-12-09T13:00:02.437Z,13.25
2022-12-09T13:05:02.552Z,13.63
2022-12-09T13:10:02.434Z,13.20
2022-12-09T13:15:02.686Z,12.68
2022-12-09T13:20:02.694Z,12.07
2022-12-09T13:25:02.596Z,11.43
2022-12-09T13:30:02.672Z,12.25
2022-12-09T13:35:02.654Z,11.80
2022-12-09T13:40:02.717Z,12.32
2022-12-09T13:45:02.982Z,14.45
2022-12-09T13:50:01.901Z,13.30
2022-12-09T13:55:02.850Z,10.00
2022-12-09T14:00:02.762Z,9.57
2022-12-09T14:05:02.775Z,8.48
2022-12-09T14:10:02.753Z,8.50
2022-12-09T14:15:02.713Z,8.65
2022-12-09T14:20:02.735Z,9.20
2022-12-09T14:25:02.744Z,9.38
2022-12-09T14:30:02.885Z,9.82
2022-12-09T14:35:08.002Z,8.18
2022-12-09T14:40:01.992Z,8.05
2022-12-09T14:45:01.959Z,8.27
2022-12-09T14:50:02.016Z,8.85
2022-12-09T14:55:01.898Z,7.70
2022-12-09T15:00:03.022Z,8.00
2022-12-09T15:05:02.088Z,8.85
2022-12-09T15:10:02.285Z,8.77
2022-12-09T15:15:02.266Z,8.70
2022-12-09T15:20:02.239Z,8.52
2022-12-09T15:25:02.225Z,7.45
2022-12-09T15:30:02.334Z,7.38
2022-12-09T15:35:02.783Z,10.55
2022-12-09T15:40:03.053Z,12.73
2022-12-09T15:45:11.963Z,0
2022-12-09T15:50:02.603Z,10.23
2022-12-09T15:55:02.605Z,9.98
2022-12-09T16:00:02.628Z,10.35
2022-12-09T16:05:02.456Z,10.05
2022-12-09T16:10:02.691Z,9.05
2022-12-09T16:15:02.777Z,8.75
2022-12-09T16:20:02.803Z,7.95
2022-12-09T16:25:15.493Z,7.97
2022-12-09T16:30:02.538Z,8.93
2022-12-09T16:35:02.528Z,9.32
2022-12-09T16:40:12.520Z,0
2022-12-09T16:45:02.472Z,9.38
2022-12-09T16:50:02.436Z,9.20
2022-12-09T16:55:02.455Z,9.23
2022-12-09T17:00:02.427Z,10.00
2022-12-09T17:05:02.527Z,10.05
2022-12-09T17:10:02.489Z,9.40
2022-12-09T17:15:03.199Z,9.85
2022-12-09T17:20:02.214Z,10.00
2022-12-09T17:25:02.122Z,9.65
2022-12-09T17:30:02.010Z,9.15
2022-12-09T17:35:01.958Z,9.75
2022-12-09T17:40:03.951Z,10.68
2022-12-09T17:45:02.204Z,10.32
2022-12-09T17:50:02.232Z,10.43
2022-12-09T17:55:02.373Z,10.18
2022-12-09T18:00:02.875Z,10.07
2022-12-09T18:05:03.422Z,10.35
2022-12-09T18:10:02.989Z,11.20
2022-12-09T18:15:02.538Z,10.68
2022-12-09T18:20:02.996Z,10.70
2022-12-09T18:25:02.634Z,10.15
2022-12-09T18:30:03.074Z,9.95
2022-12-09T18:35:03.256Z,8.95
2022-12-09T18:40:02.695Z,9.35
2022-12-09T18:45:03.278Z,9.75
2022-12-09T18:50:03.025Z,9.93
2022-12-09T18:55:02.927Z,11.30
2022-12-09T19:00:03.309Z,11.35
2022-12-09T19:05:02.748Z,10.70
2022-12-09T19:10:03.291Z,11.82
2022-12-09T19:15:02.819Z,11.52
2022-12-09T19:20:03.343Z,10.73
2022-12-09T19:25:02.935Z,10.70
2022-12-09T19:30:03.541Z,10.85
2022-12-09T19:35:02.616Z,12.75
2022-12-09T19:40:02.774Z,11.57
2022-12-09T19:45:05.351Z,11.07
2022-12-09T19:50:02.885Z,11.02
2022-12-09T19:55:02.881Z,11.65
2022-12-09T20:00:02.808Z,11.05
2022-12-09T20:05:03.154Z,10.98
2022-12-09T20:10:02.087Z,10.80
2022-12-09T20:15:02.129Z,10.68
2022-12-09T20:20:02.063Z,11.30
2022-12-09T20:25:02.413Z,12.57
2022-12-09T20:30:02.880Z,13.63
2022-12-09T20:35:06.836Z,15.05
2022-12-09T20:40:02.332Z,12.82
2022-12-09T20:45:02.284Z,12.32
2022-12-09T20:50:02.225Z,11.82
2022-12-09T20:55:02.390Z,11.68
2022-12-09T21:00:02.639Z,11.27
2022-12-09T21:05:02.692Z,12.60
2022-12-09T21:10:02.692Z,11.85
2022-12-09T21:15:02.577Z,12.48
2022-12-09T21:20:02.509Z,11.70
2022-12-09T21:25:02.573Z,11.60
2022-12-09T21:30:02.503Z,11.43
2022-12-09T21:35:02.498Z,11.35
2022-12-09T21:40:02.417Z,10.27
2022-12-09T21:45:02.292Z,10.82
2022-12-09T21:50:02.328Z,10.35
2022-12-09T21:55:02.283Z,11.02
2022-12-09T22:00:02.279Z,10.88
2022-12-09T22:05:15.003Z,10.95
2022-12-09T22:10:08.262Z,10.45
2022-12-09T22:15:08.228Z,10.88
2022-12-09T22:25:08.568Z,11.60
2022-12-09T22:30:08.637Z,11.70
2022-12-09T22:35:08.802Z,11.07
2022-12-09T22:40:08.867Z,12.02
2022-12-09T22:45:07.741Z,11.13
2022-12-09T22:50:08.758Z,11.40
2022-12-09T22:55:08.746Z,11.77
2022-12-09T23:00:09.201Z,12.25
2022-12-09T23:05:08.204Z,12.77
2022-12-09T23:10:08.415Z,13.02
2022-12-09T23:15:08.353Z,14.15
2022-12-09T23:20:08.431Z,14.80
2022-12-09T23:25:08.352Z,13.68
2022-12-09T23:30:08.576Z,12.80
2022-12-09T23:35:08.491Z,12.93
2022-12-09T23:40:08.729Z,14.18
2022-12-09T23:45:08.672Z,14.40
2022-12-09T23:50:08.744Z,14.30
2022-12-09T23:55:07.789Z,14.45
